createdAt,value
2023-01-01T00:41:36.385Z,15.81
2023-01-01T01:11:36.318Z,15.72
2023-01-01T01:27:31.228Z,15.41
2023-01-01T01:41:36.226Z,15.23
2023-01-01T02:11:36.155Z,15.03
2023-01-01T02:41:36.079Z,14.89
2023-01-01T03:11:36.058Z,14.68
2023-01-01T03:41:35.914Z,14.62
2023-01-01T04:11:35.785Z,14.49
2023-01-01T04:41:35.766Z,14.48
2023-01-01T05:41:35.621Z,14.28
2023-01-01T06:11:35.576Z,14.19
2023-01-01T06:19:30.720Z,13.86
2023-01-01T06:41:35.431Z,13.91
2023-01-01T07:11:35.319Z,13.8
2023-01-01T07:36:30.546Z,13.47
2023-01-01T07:41:35.233Z,13.32
2023-01-01T07:52:30.520Z,12.94
2023-01-01T07:58:30.511Z,12.62
2023-01-01T08:11:35.177Z,12.45
2023-01-01T08:41:35.076Z,12.71
2023-01-01T09:00:30.377Z,13.02
2023-01-01T09:11:34.919Z,13.14
2023-01-01T09:37:30.288Z,13.46
2023-01-01T10:11:34.869Z,13.55
2023-01-01T10:41:34.761Z,13.64
2023-01-01T11:11:34.714Z,13.75
2023-01-01T11:41:34.715Z,13.88
2023-01-01T12:11:34.669Z,13.83
2023-01-01T12:41:34.478Z,13.78
2023-01-01T13:11:36.412Z,13.71
2023-01-01T13:41:34.369Z,13.55
2023-01-01T14:11:34.249Z,13.33
2023-01-01T14:41:34.214Z,13.05
2023-01-01T15:11:34.184Z,12.93
2023-01-01T15:34:29.792Z,12.6
2023-01-01T15:41:34.062Z,12.43
2023-01-01T16:11:33.915Z,12.21
2023-01-01T16:37:29.621Z,11.89
2023-01-01T16:41:33.769Z,11.81
2023-01-01T17:00:29.531Z,11.48
2023-01-01T17:11:33.696Z,11.21
2023-01-01T17:21:29.512Z,10.89
2023-01-01T17:41:33.575Z,10.64
2023-01-01T18:11:33.532Z,10.36
2023-01-01T18:41:33.478Z,10.27
2023-01-01T19:11:33.364Z,10.32
2023-01-01T19:41:33.220Z,10.39
2023-01-01T20:11:33.061Z,10.54
2023-01-01T20:41:33.057Z,10.34
2023-01-01T21:11:32.861Z,10.29
2023-01-01T21:34:28.916Z,10.6
2023-01-01T21:41:32.864Z,10.85
2023-01-01T21:48:28.960Z,11.2
2023-01-01T22:07:57.317Z,11.56
2023-01-01T22:11:32.777Z,11.82
2023-01-01T22:41:32.783Z,12
2023-01-01T22:57:28.957Z,12.31
2023-01-01T23:02:28.948Z,12.62
2023-01-01T23:08:28.907Z,12.97
2023-01-01T23:11:32.731Z,13.03
2023-01-01T23:26:28.893Z,13.43
2023-01-01T23:41:32.667Z,13.58
2023-01-01T23:53:28.927Z,13.89
